Atmospheric History
02/18/2019 18:13  to  2/19/2019 18:13
Change End Date:
To complete the export process:
1) Select all of the data below
2) Copy the data to the clipboard
3) Open a word processor such as Notepad
4) Paste the data into the word processor
5) Save the file

Date/Time (MDT), AirTemp, RH, Dewpoint ,AvgWindSpeed, GustWindSpeed, WindDirection, PrecipType, PrecipIntensity, PrecipAccumulation, PrecipRate
02/19/2019 18:06, 18, 46, 1 ,6, 12, SW, None, None, ,  
02/19/2019 17:58, 15, 48, -1 ,7, 11, W, None, None, ,  
02/19/2019 17:56, 14, 48, -2 ,9, 11, W, None, None, ,  
02/19/2019 17:46, 15, 46, -2 ,9, 12, W, None, None, ,  
02/19/2019 17:43, 15, 46, -2 ,10, 12, W, None, None, ,  
02/19/2019 17:36, 15, 46, -2 ,9, 11, W, None, None, ,  
02/19/2019 17:28, 17, 44, -1 ,10, 16, W, None, None, ,  
02/19/2019 17:26, 16, 44, -2 ,9, 16, W, None, None, ,  
02/19/2019 17:16, 17, 42, -1 ,8, 10, W, None, None, ,  
02/19/2019 17:13, 17, 42, -1 ,7, 9, W, None, None, ,  
02/19/2019 17:06, 18, 42, -1 ,7, 15, W, None, None, ,  
02/19/2019 16:58, 19, 42, 0 ,10, 15, SW, None, None, ,  
02/19/2019 16:55, 18, 42, -1 ,8, 12, W, None, None, ,  
02/19/2019 16:45, 19, 41, -1 ,10, 12, W, None, None, ,  
02/19/2019 16:43, 19, 40, -1 ,9, 12, W, None, None, ,  
02/19/2019 16:35, 19, 40, -1 ,8, 14, W, None, None, ,  
02/19/2019 16:28, 20, 38, -1 ,11, 15, W, None, None, ,  
02/19/2019 16:25, 20, 38, -1 ,11, 15, W, None, None, ,  
02/19/2019 16:15, 20, 38, -1 ,12, 18, W, None, None, ,  
02/19/2019 16:13, 21, 38, 0 ,11, 20, W, None, None, ,  
02/19/2019 16:05, 21, 38, 0 ,16, 20, SW, None, None, ,  
02/19/2019 15:58, 21, 38, 0 ,14, 19, SW, None, None, ,  
02/19/2019 15:55, 21, 38, 0 ,15, 21, SW, None, None, ,  
02/19/2019 15:45, 21, 38, 0 ,19, 24, SW, None, None, ,  
02/19/2019 15:43, 21, 38, 0 ,18, 24, W, None, None, ,  
02/19/2019 15:35, 20, 38, -1 ,16, 24, SW, None, None, ,  
02/19/2019 15:28, 21, 38, 0 ,19, 24, W, None, None, ,  
02/19/2019 15:25, 21, 38, 0 ,19, 24, W, None, None, ,  
02/19/2019 15:15, 21, 38, -1 ,17, 24, W, None, None, ,  
02/19/2019 15:13, 21, 38, -1 ,17, 24, SW, None, None, ,  
02/19/2019 15:05, 21, 38, -1 ,19, 25, W, None, None, ,  
02/19/2019 14:58, 21, 38, -1 ,17, 25, W, None, None, ,  
02/19/2019 14:55, 21, 37, -1 ,17, 24, SW, None, None, ,  
02/19/2019 14:45, 21, 37, -1 ,18, 24, SW, None, None, ,  
02/19/2019 14:43, 21, 37, -1 ,19, 24, SW, None, None, ,  
02/19/2019 14:35, 21, 37, -1 ,17, 22, SW, None, None, ,  
02/19/2019 14:28, 21, 37, -1 ,16, 20, SW, None, None, ,  
02/19/2019 14:25, 21, 36, -1 ,16, 19, W, None, None, ,  
02/19/2019 14:15, 22, 36, -1 ,12, 21, SW, None, None, ,  
02/19/2019 14:13, 22, 37, -1 ,12, 21, W, None, None, ,  
02/19/2019 14:05, 21, 37, 0 ,15, 18, SW, None, None, ,  
02/19/2019 13:58, 22, 37, 0 ,13, 19, SW, None, None, ,  
02/19/2019 13:55, 21, 37, -1 ,16, 19, SW, None, None, ,  
02/19/2019 13:45, 22, 37, 0 ,13, 19, W, None, None, ,  
02/19/2019 13:44, 22, 37, 0 ,11, 19, W, None, None, ,  
02/19/2019 13:35, 23, 40, 2 ,7, 11, SW, None, None, ,  
02/19/2019 13:28, 22, 44, 3 ,2, 6, N, None, None, ,  
02/19/2019 13:24, 20, 46, 3 ,4, 7, N, None, None, ,  
02/19/2019 13:14, 20, 48, 4 ,5, 7, N, None, None, ,  
02/19/2019 13:13, 20, 48, 4 ,4, 7, N, None, None, ,  
02/19/2019 13:04, 18, 49, 2 ,6, 9, N, None, None, ,  
02/19/2019 12:58, 18, 50, 3 ,6, 8, N, None, None, ,  
02/19/2019 12:54, 18, 50, 3 ,4, 6, N, None, None, ,  
02/19/2019 12:44, 18, 52, 3 ,4, 6, NE, None, None, ,  
02/19/2019 12:43, 17, 52, 3 ,4, 6, NE, None, None, ,  
02/19/2019 12:34, 17, 52, 3 ,3, 4, N, None, None, ,  
02/19/2019 12:28, 17, 53, 3 ,3, 4, NE, None, None, ,  
02/19/2019 12:24, 17, 54, 3 ,2, 4, NE, None, None, ,  
02/19/2019 12:14, 15, 55, 2 ,3, 5, NE, None, None, ,  
02/19/2019 12:13, 15, 55, 2 ,4, 5, N, None, None, ,  
02/19/2019 12:04, 17, 55, 3 ,3, 5, N, None, None, ,  
02/19/2019 11:58, 17, 57, 4 ,1, 2, NE, None, None, ,  
02/19/2019 11:54, 16, 58, 4 ,1, 2, E, None, None, ,  
02/19/2019 11:44, 12, 63, 2 ,2, 5, E, None, None, ,  
02/19/2019 11:43, 12, 63, 2 ,2, 5, E, None, None, ,  
02/19/2019 11:34, 11, 64, 1 ,4, 6, NE, None, None, ,  
02/19/2019 11:28, 10, 65, 1 ,4, 6, NE, None, None, ,  
02/19/2019 11:24, 10, 66, 1 ,4, 6, NE, None, None, ,  
02/19/2019 11:14, 9, 67, 1 ,4, 4, NE, None, None, ,  
02/19/2019 11:13, 9, 67, 1 ,4, 4, NE, None, None, ,  
02/19/2019 11:04, 9, 69, 1 ,2, 6, NE, None, None, ,  
02/19/2019 10:58, 8, 70, 1 ,4, 5, NE, None, None, ,  
02/19/2019 10:54, 8, 71, 1 ,3, 5, NE, None, None, ,  
02/19/2019 10:44, 7, 73, 0 ,4, 6, NE, None, None, ,  
02/19/2019 10:43, 7, 73, 0 ,4, 6, NE, None, None, ,  
02/19/2019 10:34, 6, 75, 0 ,4, 6, NE, None, None, ,  
02/19/2019 10:28, 5, 76, 0 ,5, 6, NE, None, None, ,  
02/19/2019 10:24, 5, 77, -1 ,4, 6, NE, None, None, ,  
02/19/2019 10:14, 4, 79, -1 ,4, 7, NE, None, None, ,  
02/19/2019 10:13, 4, 79, -1 ,5, 7, NE, None, None, ,  
02/19/2019 10:04, 2, 81, -2 ,6, 7, NE, None, None, ,  
02/19/2019 09:58, 2, 82, -2 ,3, 9, NE, None, None, ,  
02/19/2019 09:54, 1, 83, -3 ,6, 9, NE, None, None, ,  
02/19/2019 09:43, 1, 86, -2 ,7, 9, NE, None, None, ,  
02/19/2019 09:43, 1, 86, -2 ,7, 9, NE, None, None, ,  
02/19/2019 09:33, 0, 89, -2 ,7, 7, NE, None, None, ,  
02/19/2019 09:29, 0, 90, -2 ,6, 7, NE, Other, Other, ,  
02/19/2019 09:23, 0, 90, -2 ,4, 6, NE, Other, Other, ,  
02/19/2019 09:13, -1, 90, -3 ,4, 6, NE, Other, Other, ,  
02/19/2019 09:13, -1, 90, -3 ,4, 6, NE, Other, Other, ,  
02/19/2019 09:03, -3, 90, -5 ,4, 6, N, Other, Other, ,  
02/19/2019 08:58, -4, 90, -6 ,4, 6, N, Other, Other, ,  
02/19/2019 08:53, -3, 90, -5 ,3, 4, N, Other, Other, ,  
02/19/2019 08:43, -3, 90, -5 ,2, 4, NE, Other, Other, ,  
02/19/2019 08:43, -3, 90, -5 ,2, 4, NE, Other, Other, ,  
02/19/2019 08:33, -2, 90, -4 ,2, 4, N, Other, Other, ,  
02/19/2019 08:28, -3, 90, -5 ,2, 4, E, Other, Other, ,  
02/19/2019 08:23, -4, 90, -6 ,1, 5, NW, Other, Other, ,  
02/19/2019 08:13, -6, 89, -8 ,3, 5, N, Other, Other, ,  
02/19/2019 08:13, -6, 89, -8 ,3, 5, N, Other, Other, ,  
02/19/2019 08:03, -8, 89, -10 ,4, 7, N, Other, Other, ,  
02/19/2019 07:58, -9, 89, -11 ,4, 6, NE, Other, Other, ,  
02/19/2019 07:53, -9, 89, -11 ,6, 6, NE, Other, Other, ,  
02/19/2019 07:43, -11, 89, -13 ,3, 5, NE, Other, Other, ,  
02/19/2019 07:43, -11, 89, -13 ,3, 5, NE, Other, Other, ,  
02/19/2019 07:33, -11, 89, -13 ,3, 5, NE, Other, Other, ,  
02/19/2019 07:28, -11, 89, -13 ,4, 5, NE, Other, Other, ,  
02/19/2019 07:23, -12, 89, -14 ,2, 4, NE, Other, Other, ,  
02/19/2019 07:13, -14, 89, -16 ,2, 3, NE, Other, Other, ,  
02/19/2019 07:13, -14, 89, -16 ,2, 3, NE, Other, Other, ,  
02/19/2019 07:03, -15, 89, -17 ,1, 2, NE, Other, Other, ,  
02/19/2019 06:59, -15, 89, -17 ,1, 2, NE, Other, Other, ,  
02/19/2019 06:53, -15, 89, -17 ,0, 2, E, Other, Other, ,  
02/19/2019 06:44, -14, 89, -16 ,1, 2, NE, Other, Other, ,  
02/19/2019 06:43, -14, 89, -16 ,1, 1, NE, Other, Other, ,  
02/19/2019 06:33, -13, 89, -16 ,2, 4, NE, Other, Other, ,  
02/19/2019 06:29, -14, 89, -16 ,2, 3, NE, Other, Other, ,  
02/19/2019 06:23, -14, 89, -16 ,1, 2, NE, Other, Other, ,  
02/19/2019 06:14, -14, 89, -16 ,2, 4, NE, Other, Other, ,  
02/19/2019 06:12, -14, 89, -17 ,1, 2, NE, Other, Other, ,  
02/19/2019 06:02, -15, 89, -17 ,3, 4, NE, Other, Other, ,  
02/19/2019 05:59, -15, 89, -17 ,1, 3, E, Other, Other, ,  
02/19/2019 05:52, -15, 89, -17 ,0, 2, E, Other, Other, ,  
02/19/2019 05:44, -14, 89, -17 ,0, 1, E, Other, Other, ,  
02/19/2019 05:42, -14, 89, -16 ,0, 1, E, Other, Other, ,  
02/19/2019 05:32, -13, 89, -15 ,0, 1, E, Other, Other, ,  
02/19/2019 05:29, -13, 89, -15 ,0, 1, E, Other, Other, ,  
02/19/2019 05:22, -13, 89, -16 ,0, 0, E, Other, Other, ,  
02/19/2019 05:14, -13, 89, -15 ,0, 0, E, Other, Other, ,  
02/19/2019 05:12, -13, 90, -15 ,0, 1, E, Other, Other, ,  
02/19/2019 05:02, -13, 90, -15 ,0, 0, E, Other, Other, ,  
02/19/2019 04:59, -13, 90, -15 ,0, 0, E, Other, Other, ,  
02/19/2019 04:52, -13, 90, -15 ,0, 1, S, Other, Other, ,  
02/19/2019 04:44, -12, 90, -14 ,0, 2, S, Other, Other, ,  
02/19/2019 04:42, -12, 90, -14 ,0, 2, S, Other, Other, ,  
02/19/2019 04:32, -13, 90, -15 ,2, 3, S, Other, Other, ,  
02/19/2019 04:29, -13, 90, -15 ,1, 2, S, Other, Other, ,  
02/19/2019 04:22, -13, 90, -15 ,0, 2, NW, Other, Other, ,  
02/19/2019 04:14, -13, 90, -15 ,1, 2, NW, Other, Other, ,  
02/19/2019 04:12, -13, 90, -15 ,0, 2, NW, Other, Other, ,  
02/19/2019 04:02, -13, 90, -15 ,1, 2, W, Other, Other, ,  
02/19/2019 03:59, -13, 90, -15 ,0, 2, N, Other, Other, ,  
02/19/2019 03:52, -12, 90, -14 ,1, 3, SW, Other, Other, ,  
02/19/2019 03:44, -13, 90, -15 ,1, 3, SW, Other, Other, ,  
02/19/2019 03:42, -13, 90, -15 ,2, 3, SW, Other, Other, ,  
02/19/2019 03:32, -12, 90, -14 ,1, 3, E, Other, Other, ,  
02/19/2019 03:29, -12, 90, -14 ,0, 3, E, Other, Other, ,  
02/19/2019 03:22, -11, 90, -13 ,2, 3, NE, Other, Other, ,  
02/19/2019 03:14, -11, 90, -13 ,1, 1, E, Other, Other, ,  
02/19/2019 03:12, -11, 90, -13 ,0, 2, S, Other, Other, ,  
02/19/2019 03:02, -12, 90, -14 ,0, 2, NE, Other, Other, ,  
02/19/2019 02:59, -12, 90, -14 ,0, 3, NE, Other, Other, ,  
02/19/2019 02:52, -11, 90, -13 ,3, 4, NW, Other, Other, ,  
02/19/2019 02:44, -10, 90, -12 ,3, 6, W, Other, Other, ,  
02/19/2019 02:41, -10, 91, -11 ,1, 6, E, Other, Other, ,  
02/19/2019 02:31, -10, 91, -12 ,1, 3, NW, Other, Other, ,  
02/19/2019 02:29, -10, 91, -12 ,2, 4, NW, Other, Other, ,  
02/19/2019 02:21, -8, 91, -10 ,1, 4, NW, None, None, ,  
02/19/2019 02:14, -7, 91, -9 ,2, 5, E, None, None, ,  
02/19/2019 02:11, -7, 91, -9 ,2, 6, E, None, None, ,  
02/19/2019 02:01, -8, 91, -10 ,4, 9, NE, None, None, ,  
02/19/2019 01:59, -8, 91, -10 ,4, 9, NE, None, None, ,  
02/19/2019 01:51, -7, 91, -9 ,5, 7, E, None, None, ,  
02/19/2019 01:44, -7, 91, -8 ,3, 5, NE, None, None, ,  
02/19/2019 01:41, -6, 91, -8 ,3, 7, E, None, None, ,  
02/19/2019 01:31, -5, 91, -7 ,6, 7, E, None, None, ,  
02/19/2019 01:29, -5, 91, -7 ,4, 7, E, None, None, ,  
02/19/2019 01:21, -5, 91, -7 ,3, 6, E, None, None, ,  
02/19/2019 01:14, -6, 91, -7 ,4, 7, E, None, None, ,  
02/19/2019 01:11, -5, 91, -7 ,5, 7, E, None, None, ,  
02/19/2019 01:01, -5, 91, -7 ,4, 9, E, None, None, ,  
02/19/2019 00:59, -5, 91, -7 ,4, 9, E, None, None, ,  
02/19/2019 00:51, -6, 91, -7 ,7, 11, E, None, None, ,  
02/19/2019 00:44, -5, 91, -7 ,7, 9, E, None, None, ,  
02/19/2019 00:41, -5, 91, -7 ,5, 7, E, None, None, ,  
02/19/2019 00:31, -4, 91, -6 ,4, 5, E, None, None, ,  
02/19/2019 00:29, -4, 91, -6 ,3, 4, E, None, None, ,  
02/19/2019 00:21, -4, 91, -5 ,3, 4, NE, None, None, ,  
02/19/2019 00:14, -4, 91, -6 ,2, 4, NE, None, None, ,  
02/19/2019 00:11, -4, 91, -6 ,2, 4, NE, None, None, ,  
02/19/2019 00:01, -3, 91, -4 ,1, 7, N, None, None, ,  
02/18/2019 23:59, -2, 91, -4 ,2, 7, N, None, None, ,  
02/18/2019 23:51, -2, 91, -4 ,4, 6, E, None, None, ,  
02/18/2019 23:44, -2, 91, -4 ,4, 6, E, None, None, ,  
02/18/2019 23:41, -2, 91, -4 ,2, 6, E, None, None, ,  
02/18/2019 23:31, -1, 91, -3 ,4, 8, NE, None, None, ,  
02/18/2019 23:29, -1, 91, -3 ,5, 8, NE, None, None, ,  
02/18/2019 23:21, -2, 91, -3 ,7, 7, E, None, None, ,  
02/18/2019 23:14, -1, 91, -3 ,6, 7, E, None, None, ,  
02/18/2019 23:10, -1, 91, -3 ,4, 5, E, None, None, ,  
02/18/2019 23:00, 1, 91, -1 ,3, 4, E, None, None, ,  
02/18/2019 22:59, 1, 91, -1 ,3, 4, E, None, None, ,  
02/18/2019 22:50, 2, 91, 0 ,2, 3, NE, None, None, ,  
02/18/2019 22:43, 2, 90, 0 ,1, 2, NE, None, None, ,  
02/18/2019 22:40, 3, 90, 1 ,1, 2, NE, None, None, ,  
02/18/2019 22:30, 3, 90, 1 ,1, 2, NE, None, None, ,  
02/18/2019 22:29, 4, 90, 1 ,1, 2, NE, None, None, ,  
02/18/2019 22:20, 4, 89, 1 ,1, 3, NE, None, None, ,  
02/18/2019 22:14, 4, 89, 1 ,1, 2, NE, None, None, ,  
02/18/2019 22:10, 3, 89, 1 ,0, 1, NW, None, None, ,  
02/18/2019 22:00, 4, 89, 1 ,1, 2, NW, Yes, , ,  
02/18/2019 21:59, 4, 89, 1 ,1, 2, NW, Yes, , ,  
02/18/2019 21:50, 4, 88, 1 ,1, 2, W, Yes, , ,  
02/18/2019 21:44, 4, 88, 1 ,2, 2, W, Yes, , ,  
02/18/2019 21:40, 4, 88, 1 ,2, 2, W, Yes, , ,  
02/18/2019 21:30, 4, 88, 1 ,2, 2, W, Yes, , ,  
02/18/2019 21:29, 4, 88, 1 ,2, 2, W, Yes, , ,  
02/18/2019 21:20, 4, 87, 1 ,1, 2, SW, Yes, , ,  
02/18/2019 21:14, 4, 87, 1 ,1, 1, SW, Yes, , ,  
02/18/2019 21:10, 4, 87, 1 ,1, 1, SW, Yes, , ,  
02/18/2019 21:00, 4, 87, 1 ,1, 1, SW, Yes, , ,  
02/18/2019 20:59, 4, 86, 1 ,1, 1, SW, Yes, , ,  
02/18/2019 20:50, 5, 86, 1 ,0, 1, NW, Yes, , ,  
02/18/2019 20:44, 5, 85, 1 ,0, 0, NW, Yes, , ,  
02/18/2019 20:40, 5, 85, 1 ,0, 0, N, Yes, , ,  
02/18/2019 20:30, 5, 85, 1 ,0, 0, N, Yes, , ,  
02/18/2019 20:29, 5, 85, 1 ,0, 0, N, Yes, , ,  
02/18/2019 20:20, 5, 85, 1 ,0, 0, N, Yes, , ,  
02/18/2019 20:14, 5, 84, 1 ,0, 0, N, Yes, , ,  
02/18/2019 20:10, 4, 84, 1 ,0, 0, N, Yes, , ,  
02/18/2019 20:00, 4, 84, 1 ,0, 0, NE, Yes, , ,  
02/18/2019 19:59, 4, 84, 1 ,0, 0, NE, Yes, , ,  
02/18/2019 19:50, 4, 83, 1 ,0, 0, NE, Yes, , ,  
02/18/2019 19:44, 4, 83, 1 ,0, 0, NE, Yes, , ,  
02/18/2019 19:39, 4, 83, 0 ,0, 0, NE, Yes, , ,  
02/18/2019 19:29, 4, 83, 0 ,0, 0, NE, Yes, , ,  
02/18/2019 19:29, 4, 83, 0 ,0, 0, NE, Yes, , ,  
02/18/2019 19:19, 4, 82, 0 ,0, 0, NE, Yes, , ,  
02/18/2019 19:14, 4, 81, 0 ,0, 0, NE, Yes, , ,  
02/18/2019 19:09, 4, 81, 0 ,0, 0, NE, Yes, , ,  
02/18/2019 18:59, 4, 81, 0 ,0, 1, NE, Yes, , ,  
02/18/2019 18:59, 4, 81, 0 ,0, 1, NE, Yes, , ,  
02/18/2019 18:49, 5, 81, 0 ,1, 3, NE, Yes, , ,  
02/18/2019 18:44, 5, 81, 0 ,2, 3, NE, Yes, , ,  
02/18/2019 18:39, 5, 80, 0 ,1, 2, NE, Yes, , ,  
02/18/2019 18:29, 5, 80, 0 ,0, 2, NE, Yes, , ,  
02/18/2019 18:28, 5, 80, 0 ,0, 2, NE, Yes, , ,  
02/18/2019 18:19, 5, 80, 1 ,1, 3, NE, Yes, , ,  
02/18/2019 18:13, 5, 80, 0 ,1, 3, NE, Yes, , ,  
Change End Date:

Copyright © 1998-2015 Vaisala, Inc.
All Rights Reserved
Send comments about the data to:
SCAN Web ® is a registered trademark of Vaisala, Inc.
SCAN Web Version 6.0